Terminal Aerodrome Forecast
Issued by NWS Cleveland, OH

Home | Current Version | Previous Version | Graphics & Text | Print | Product List | Glossary On
Versions: 1 2 3 4 5 6 7 8 9 10 11 12 13 14 15 16 17 18 19 20 21 22 23 24 25 26 27 28 29
000
FTUS41 KCLE 221300 AAA
TAFCLE
TAF AMD
KCLE 221326Z 2213/2318 15006KT P6SM SCT120 BKN250
     FM221600 15006KT P6SM BKN045
     FM222200 13008KT P6SM OVC035
     FM230400 13010KT 6SM BR VCSH SCT008 OVC025
      TEMPO 2310/2314 4SM -RA BKN008 OVC015
     FM231400 15012G24KT 4SM -RA BR BKN008 OVC015=

USA.gov is the U.S. government's official web portal to all federal, state and local government web resources and services.